Home   Weather   Latvia   Liepāja   Past weeks
Flag for Latvia

Past Weather in Liepāja, Latvia — Yesterday and Last 2 Weeks

Currently: 84 °F. Sunny. (Weather station: Liepaja International Airport, Latvia). See more current weather

Past Weather in Liepāja — Graph

°F

Liepāja Temperature Yesterday

Maximum temperature yesterday: 88 °F (at 12:50 pm)
Minimum temperature yesterday: 63 °F (at 1:50 am)
Average temperature yesterday: 75 °F

High & Low Weather Summary for the Past Weeks

 TemperatureHumidityPressure
High91 °F (Aug 19, 3:20 pm)100% (Aug 9, 2:20 am)30.36 "Hg (Aug 9, 2:20 am)
Low45 °F (Aug 11, 5:50 am)31% (Aug 14, 3:20 pm)29.83 "Hg (Aug 15, 5:50 pm)
Average69 °F69%30.09 "Hg
* Reported Aug 4 7:20 pm — Aug 19 7:20 pm, Liepāja. Weather by CustomWeather, © 2022

Note: Actual official high and low records may vary slightly from our data, if they occured in-between our weather recording intervals... More about our weather records

Liepāja Weather History for the Previous 24 Hours

Scroll right to see more
 ConditionsComfort  
Time TempWeatherWind HumidityBarometerVisibility
7:20 pm
Fri, Aug 19
84 °FSunny.12 mph43%29.92 "Hg10 mi
6:50 pm86 °FPassing clouds.12 mph40%29.92 "HgN/A
6:20 pm88 °FPassing clouds.9 mph38%29.92 "HgN/A
5:20 pm90 °FPassing clouds.10 mph36%29.92 "HgN/A
4:50 pm90 °FPassing clouds.12 mph36%29.92 "HgN/A
4:20 pm90 °FPassing clouds.9 mph38%29.92 "HgN/A
3:50 pm90 °FPassing clouds.13 mph38%29.92 "HgN/A
3:20 pm91 °FPassing clouds.13 mph36%29.95 "HgN/A
2:50 pm90 °FPassing clouds.13 mph36%29.95 "HgN/A
1:50 pm90 °FPassing clouds.13 mph38%29.95 "HgN/A
1:20 pm90 °FPassing clouds.12 mph41%29.95 "HgN/A
12:50 pm90 °FPassing clouds.7 mph41%29.95 "HgN/A
11:50 am86 °FPassing clouds.9 mph52%29.95 "HgN/A
11:20 am86 °FPassing clouds.8 mph49%29.95 "HgN/A
10:50 am84 °FSunny.9 mph55%29.95 "Hg10 mi
10:20 am82 °FSunny.8 mph58%29.95 "Hg10 mi
9:50 am81 °FPassing clouds.6 mph58%29.95 "HgN/A
9:20 am79 °FPassing clouds.5 mph65%29.95 "HgN/A
8:50 am75 °FPassing clouds.3 mph69%29.95 "HgN/A
8:20 am73 °FSunny.5 mph74%29.95 "Hg10 mi
7:50 am72 °FSunny.5 mph78%29.95 "Hg10 mi
7:20 am68 °FSunny.5 mph88%29.95 "Hg10 mi
6:50 am66 °FClear.6 mph88%29.95 "Hg10 mi
6:20 am66 °FClear.6 mph88%29.95 "Hg10 mi
5:50 am68 °FClear.6 mph83%29.92 "Hg10 mi
5:20 am68 °FClear.5 mph83%29.92 "Hg10 mi
4:50 am66 °FClear.5 mph88%29.92 "Hg10 mi
2:20 am66 °FClear.6 mph88%29.92 "Hg10 mi
1:50 am66 °FClear.3 mph88%29.95 "Hg10 mi
12:20 am68 °FClear.3 mph94%29.95 "Hg10 mi
10:50 pm
Thu, Aug 18
68 °FClear.2 mph94%29.95 "Hg5 mi
10:20 pm70 °FClear.2 mph88%29.95 "Hg10 mi
9:20 pm72 °FSunny.No wind88%29.92 "Hg10 mi
8:50 pm75 °FSunny.2 mph78%29.92 "Hg10 mi
8:20 pm79 °FSunny.No wind70%29.92 "Hg10 mi
Weather by CustomWeather, © 2022

See weather overview